Time;durP1;ratioP1;P1;durP2;ratioP2;P2;SDS_P1;SDS_P2;PMS_P1;PMS_P2;Temp;Humidity;BMP_temperature;BMP_pressure;BME280_temperature;BME280_humidity;BME280_pressure;Samples;Min_cycle;Max_cycle;Signal;HPM_P1;HPM_P2
2022/07/24 00:01:02;;;;;;;25.40;22.82;;;;;;;21.26;88.43;96772.66;1649872;85;21050;-83
2022/07/24 00:03:28;;;;;;;28.75;25.88;;;;;;;21.23;88.82;96774.43;1642684;85;21015;-83
2022/07/24 00:05:54;;;;;;;27.27;24.77;;;;;;;21.21;89.01;96775.19;1639993;85;21015;-86
2022/07/24 00:08:19;;;;;;;27.65;24.80;;;;;;;21.16;89.29;96776.44;1639345;85;21448;-86
2022/07/24 00:10:45;;;;;;;27.98;25.05;;;;;;;21.11;89.55;96767.89;1642626;85;21109;-86
2022/07/24 00:13:11;;;;;;;25.80;23.38;;;;;;;21.14;89.53;96769.25;1644011;86;20971;-86
2022/07/24 00:15:37;;;;;;;25.02;22.62;;;;;;;21.15;89.64;96773.48;1633626;85;21433;-86
2022/07/24 00:18:02;;;;;;;27.93;24.92;;;;;;;21.17;89.50;96778.84;1642544;85;21430;-86
2022/07/24 00:20:28;;;;;;;26.48;23.83;;;;;;;21.19;89.36;96776.75;1643109;86;21031;-85
2022/07/24 00:22:54;;;;;;;25.27;22.82;;;;;;;21.22;88.96;96770.98;1644949;85;21047;-85
2022/07/24 00:25:20;;;;;;;26.52;24.07;;;;;;;21.21;89.03;96758.02;1641582;85;21061;-85
2022/07/24 00:27:45;;;;;;;27.13;24.55;;;;;;;21.29;89.07;96773.48;1645777;85;21046;-85
2022/07/24 00:30:12;;;;;;;26.48;24.02;;;;;;;21.31;89.15;96770.61;1644255;86;21353;-85
2022/07/24 00:32:38;;;;;;;23.45;21.17;;;;;;;21.25;88.93;96761.28;1644676;85;21316;-85
2022/07/24 00:35:04;;;;;;;24.43;21.95;;;;;;;21.26;89.24;96752.83;1641935;86;20959;-84
2022/07/24 00:37:30;;;;;;;25.57;22.95;;;;;;;21.22;88.89;96757.77;1641402;85;21407;-83
2022/07/24 00:39:56;;;;;;;24.98;22.67;;;;;;;21.22;89.01;96759.09;1640657;86;21021;-86
2022/07/24 00:42:22;;;;;;;23.05;20.65;;;;;;;21.22;88.99;96759.09;1645600;85;20994;-85
2022/07/24 00:44:47;;;;;;;23.40;21.23;;;;;;;21.20;88.78;96753.77;1643673;86;21085;-85
2022/07/24 00:47:14;;;;;;;22.27;19.98;;;;;;;21.20;88.62;96763.02;1642498;86;21193;-86
2022/07/24 00:49:39;;;;;;;25.48;22.90;;;;;;;21.19;88.63;96765.39;1641310;86;21015;-84
2022/07/24 00:52:06;;;;;;;24.30;22.02;;;;;;;21.17;88.92;96762.19;1642667;85;21002;-86
2022/07/24 00:54:31;;;;;;;23.15;20.88;;;;;;;21.22;88.98;96759.62;1643957;86;20983;-85
2022/07/24 00:56:57;;;;;;;22.10;19.95;;;;;;;21.12;88.75;96760.76;1646389;86;21030;-86
2022/07/24 00:59:23;;;;;;;19.82;17.90;;;;;;;21.12;88.75;96760.76;1647761;85;21464;-83
2022/07/24 01:01:49;;;;;;;20.15;18.15;;;;;;;21.09;88.59;96760.72;1648207;86;21540;-84
2022/07/24 01:04:14;;;;;;;19.25;17.37;;;;;;;21.06;88.71;96766.48;1652594;86;21109;-84
2022/07/24 01:06:43;;;;;;;17.82;16.15;;;;;;;21.03;88.76;96768.29;1645567;86;20995;-84
2022/07/24 01:09:09;;;;;;;16.40;15.00;;;;;;;21.02;88.93;96765.38;1643990;86;21018;-84
2022/07/24 01:11:37;;;;;;;18.90;17.00;;;;;;;21.03;88.94;96763.53;1644765;86;21245;-84
2022/07/24 01:14:02;;;;;;;20.48;18.57;;;;;;;20.96;88.76;96764.98;1641874;86;21006;-84
2022/07/24 01:16:30;;;;;;;19.32;17.42;;;;;;;20.96;89.42;96768.94;1640204;85;21013;-84
2022/07/24 01:18:56;;;;;;;19.95;17.85;;;;;;;20.88;89.30;96754.81;1616025;87;20994;-85
2022/07/24 01:21:22;;;;;;;21.30;19.23;;;;;;;20.93;89.52;96766.27;1642188;86;21000;-84
2022/07/24 01:23:47;;;;;;;21.48;19.23;;;;;;;20.86;90.21;96764.30;1644100;86;21547;-84
2022/07/24 01:26:13;;;;;;;21.10;19.10;;;;;;;20.77;89.52;96763.59;1644255;86;21098;-84
2022/07/24 01:28:39;;;;;;;24.23;21.68;;;;;;;20.75;90.10;96762.51;1644144;86;20963;-84
2022/07/24 01:31:05;;;;;;;22.37;20.17;;;;;;;20.66;90.10;96763.91;1645010;85;21092;-84
2022/07/24 01:33:30;;;;;;;22.07;19.82;;;;;;;20.66;90.10;96763.91;1647215;85;21347;-83
2022/07/24 01:35:57;;;;;;;23.30;20.77;;;;;;;20.66;90.27;96761.27;1641625;85;21030;-84
2022/07/24 01:38:23;;;;;;;21.23;19.27;;;;;;;20.64;90.58;96768.11;1645527;86;21078;-85
2022/07/24 01:40:49;;;;;;;22.60;20.50;;;;;;;20.59;90.42;96768.55;1642635;85;21109;-85
2022/07/24 01:43:15;;;;;;;22.95;20.75;;;;;;;20.53;90.46;96763.70;1643509;86;20980;-85
2022/07/24 01:45:41;;;;;;;23.22;21.02;;;;;;;20.53;90.70;96771.61;1642596;86;21478;-86
2022/07/24 01:48:08;;;;;;;22.67;20.48;;;;;;;20.52;90.71;96766.05;1641900;86;21006;-86
2022/07/24 01:50:33;;;;;;;22.93;20.62;;;;;;;20.51;90.75;96771.05;1641398;86;21133;-84
2022/07/24 01:53:01;;;;;;;24.07;21.60;;;;;;;20.48;90.70;96772.81;1645637;86;21073;-85
2022/07/24 01:55:27;;;;;;;23.38;21.17;;;;;;;20.38;90.50;96769.45;1649303;85;21062;-86
2022/07/24 01:57:53;;;;;;;23.35;20.95;;;;;;;20.34;90.34;96765.68;1642708;86;20990;-86
2022/07/24 02:00:18;;;;;;;21.17;18.92;;;;;;;20.26;90.68;96777.91;1642290;86;21424;-86
2022/07/24 02:02:45;;;;;;;21.45;19.40;;;;;;;20.24;90.85;96779.98;1642327;85;21006;-86
2022/07/24 02:05:12;;;;;;;21.80;19.67;;;;;;;20.25;90.68;96777.63;1643848;86;21035;-84
2022/07/24 02:07:40;;;;;;;21.90;19.77;;;;;;;20.27;91.07;96776.06;1641451;86;21006;-83
2022/07/24 02:10:06;;;;;;;21.80;19.75;;;;;;;20.25;90.71;96771.02;1642961;86;21115;-86
2022/07/24 02:12:32;;;;;;;22.73;20.32;;;;;;;20.22;90.75;96777.30;1645178;85;20973;-83
2022/07/24 02:14:57;;;;;;;21.42;18.92;;;;;;;20.22;91.12;96783.37;1640659;86;20971;-86
2022/07/24 02:17:23;;;;;;;19.60;17.80;;;;;;;20.23;90.95;96782.85;1640469;86;21129;-86
2022/07/24 02:19:49;;;;;;;19.87;17.98;;;;;;;20.16;90.48;96781.64;1640003;86;21024;-86
2022/07/24 02:22:15;;;;;;;21.02;19.05;;;;;;;20.04;90.19;96783.00;1642048;85;20992;-86
2022/07/24 02:24:40;;;;;;;21.65;19.57;;;;;;;19.93;90.28;96799.63;1641857;86;21408;-85
2022/07/24 02:27:06;;;;;;;20.43;18.42;;;;;;;19.81;90.57;96796.19;1646940;86;21386;-84
2022/07/24 02:29:32;;;;;;;21.25;19.15;;;;;;;19.79;90.88;96794.30;1649942;85;21045;-85
2022/07/24 02:31:59;;;;;;;20.45;18.50;;;;;;;19.79;90.83;96793.78;1653528;86;21402;-85
2022/07/24 02:34:24;;;;;;;20.12;18.23;;;;;;;19.81;90.66;96803.30;1617669;86;21208;-84
2022/07/24 02:36:50;;;;;;;21.15;18.87;;;;;;;19.84;91.07;96798.88;1652137;86;20982;-84
2022/07/24 02:39:16;;;;;;;19.90;18.02;;;;;;;19.86;90.99;96802.91;1650838;85;21105;-84
2022/07/24 02:41:42;;;;;;;20.80;18.60;;;;;;;19.89;91.02;96798.49;1647333;86;21081;-83
2022/07/24 02:44:08;;;;;;;20.55;18.52;;;;;;;19.84;90.32;96804.16;1649686;85;21341;-84
2022/07/24 02:46:33;;;;;;;20.20;18.17;;;;;;;19.81;90.35;96798.83;1646092;86;21083;-83
2022/07/24 02:48:59;;;;;;;20.85;18.85;;;;;;;19.74;91.15;96796.31;1647857;86;21101;-83
2022/07/24 02:51:25;;;;;;;22.15;19.95;;;;;;;19.74;91.15;96796.31;1644523;85;21027;-84
2022/07/24 02:53:51;;;;;;;20.37;18.48;;;;;;;19.81;90.64;96805.42;1647246;86;21042;-83
2022/07/24 02:56:16;;;;;;;22.13;19.77;;;;;;;19.82;90.71;96807.02;1643533;85;21046;-87
2022/07/24 02:58:42;;;;;;;20.62;18.73;;;;;;;19.83;90.69;96805.98;1652811;85;21424;-86
2022/07/24 03:01:08;;;;;;;23.47;20.97;;;;;;;19.81;90.55;96812.01;1650307;85;20988;-87
2022/07/24 03:03:33;;;;;;;26.02;23.52;;;;;;;19.84;90.78;96816.02;1649815;85;21402;-83
2022/07/24 03:05:59;;;;;;;26.93;24.52;;;;;;;19.77;90.54;96820.09;1649085;85;21104;-86
2022/07/24 03:08:25;;;;;;;26.93;23.95;;;;;;;19.73;90.60;96820.27;1644581;85;20964;-84
2022/07/24 03:10:50;;;;;;;24.07;21.68;;;;;;;19.74;90.95;96818.73;1653595;85;21109;-86
2022/07/24 03:13:16;;;;;;;22.80;20.60;;;;;;;19.79;90.97;96824.63;1650452;85;21014;-87
2022/07/24 03:15:42;;;;;;;24.92;22.52;;;;;;;19.79;90.56;96826.73;1652668;85;21012;-87
2022/07/24 03:18:08;;;;;;;25.92;23.57;;;;;;;19.85;90.81;96833.44;1645523;85;21410;-84
2022/07/24 03:20:34;;;;;;;25.68;22.50;;;;;;;19.87;90.51;96836.68;1646423;87;20974;-84
2022/07/24 03:22:59;;;;;;;23.77;21.48;;;;;;;19.87;90.59;96840.12;1646118;86;21013;-85
2022/07/24 03:25:25;;;;;;;23.85;21.55;;;;;;;19.87;90.69;96840.63;1646225;85;21713;-85
2022/07/24 03:27:51;;;;;;;22.65;20.55;;;;;;;19.87;90.55;96845.91;1646166;86;20960;-87
2022/07/24 03:30:18;;;;;;;22.58;20.48;;;;;;;19.89;90.36;96847.80;1645343;86;21420;-86
2022/07/24 03:32:44;;;;;;;21.52;19.40;;;;;;;19.88;90.07;96852.27;1645268;86;20983;-84
2022/07/24 03:35:09;;;;;;;22.93;20.72;;;;;;;19.89;89.90;96855.19;1643693;86;20983;-87
2022/07/24 03:37:35;;;;;;;23.00;20.72;;;;;;;19.89;89.55;96854.39;1646512;86;20971;-86
2022/07/24 03:40:01;;;;;;;22.45;20.25;;;;;;;19.89;89.74;96853.07;1646782;85;21158;-86
2022/07/24 03:42:29;;;;;;;19.40;16.95;;;;;;;19.84;89.23;96858.20;1644565;86;21365;-85
2022/07/24 03:44:54;;;;;;;20.40;18.17;;;;;;;19.77;88.58;96859.64;1646953;86;21037;-86
2022/07/24 03:47:20;;;;;;;18.75;16.85;;;;;;;19.76;89.34;96861.48;1648075;85;21038;-86
2022/07/24 03:49:46;;;;;;;17.92;16.23;;;;;;;19.75;89.41;96864.34;1638246;86;21477;-86
2022/07/24 03:52:12;;;;;;;15.88;14.28;;;;;;;19.73;89.34;96863.26;1637380;86;20983;-85
2022/07/24 03:54:37;;;;;;;15.55;14.03;;;;;;;19.72;88.94;96866.92;1633556;86;21017;-87
2022/07/24 03:57:03;;;;;;;16.35;14.70;;;;;;;19.68;88.62;96869.71;1632235;86;21007;-86
2022/07/24 03:59:29;;;;;;;16.35;14.75;;;;;;;19.67;88.82;96870.74;1633145;86;21297;-83
2022/07/24 04:01:55;;;;;;;16.67;14.07;;;;;;;19.65;88.59;96870.17;1635592;86;21003;-86
2022/07/24 04:04:20;;;;;;;16.52;12.53;;;;;;;19.61;88.30;96869.02;1634060;87;21381;-85
2022/07/24 04:06:46;;;;;;;14.93;13.43;;;;;;;19.59;88.18;96869.77;1632760;86;21129;-86
2022/07/24 04:09:13;;;;;;;13.80;12.23;;;;;;;19.59;88.18;96879.00;1635661;86;21138;-87
2022/07/24 04:11:38;;;;;;;12.63;11.40;;;;;;;19.59;87.44;96884.27;1636239;86;21399;-85
2022/07/24 04:14:07;;;;;;;13.22;11.83;;;;;;;19.59;87.05;96874.23;1635689;86;21019;-84
2022/07/24 04:16:33;;;;;;;13.28;11.93;;;;;;;19.55;86.96;96875.21;1638951;86;21363;-87
2022/07/24 04:18:59;;;;;;;11.55;10.40;;;;;;;19.44;86.59;96873.31;1636506;86;21027;-86
2022/07/24 04:21:25;;;;;;;12.13;9.73;;;;;;;19.37;86.63;96875.25;1638479;86;20985;-83
2022/07/24 04:23:50;;;;;;;10.55;9.45;;;;;;;19.32;86.59;96884.33;1611558;87;21033;-83
2022/07/24 04:26:16;;;;;;;10.85;8.65;;;;;;;19.26;86.39;96883.41;1608488;88;21035;-83
2022/07/24 04:28:42;;;;;;;10.20;8.68;;;;;;;19.26;86.29;96889.19;1615374;88;21049;-83
2022/07/24 04:31:08;;;;;;;10.03;8.55;;;;;;;19.20;85.92;96888.26;1616870;88;20932;-83
2022/07/24 04:33:33;;;;;;;10.03;8.90;;;;;;;19.16;86.15;96891.02;1616178;88;21512;-83
2022/07/24 04:35:59;;;;;;;11.50;8.95;;;;;;;19.12;86.13;96893.83;1610706;87;21372;-83
2022/07/24 04:38:25;;;;;;;9.28;8.38;;;;;;;19.04;85.61;96898.09;1612804;87;20976;-83
2022/07/24 04:40:52;;;;;;;8.25;7.42;;;;;;;19.00;86.05;96904.30;1609236;88;21018;-83
2022/07/24 04:43:18;;;;;;;9.50;7.95;;;;;;;18.98;86.00;96899.77;1633364;86;21116;-83
2022/07/24 04:45:44;;;;;;;8.80;7.78;;;;;;;18.98;86.29;96902.92;1636292;86;20967;-84
2022/07/24 04:48:10;;;;;;;8.10;7.05;;;;;;;19.00;86.55;96902.98;1634701;86;22107;-83
2022/07/24 04:50:35;;;;;;;8.35;7.55;;;;;;;19.04;86.82;96905.48;1641707;86;21072;-87
2022/07/24 04:53:01;;;;;;;8.88;7.30;;;;;;;19.08;87.02;96905.33;1638386;85;21017;-83
2022/07/24 04:55:27;;;;;;;10.78;7.05;;;;;;;19.13;87.41;96908.09;1644413;85;21006;-85
2022/07/24 04:57:53;;;;;;;9.68;7.87;;;;;;;19.17;87.26;96906.61;1629694;86;21063;-85
2022/07/24 05:00:19;;;;;;;8.73;7.83;;;;;;;19.19;87.09;96903.23;1633221;86;21074;-84
2022/07/24 05:02:45;;;;;;;8.53;7.67;;;;;;;19.22;87.25;96898.56;1633352;85;21043;-83
2022/07/24 05:05:11;;;;;;;7.85;7.05;;;;;;;19.25;86.98;96899.44;1639737;86;20986;-84
2022/07/24 05:07:36;;;;;;;8.75;7.20;;;;;;;19.24;86.95;96906.53;1609502;88;20944;-84
2022/07/24 05:10:04;;;;;;;8.20;7.17;;;;;;;19.25;87.09;96904.70;1559812;90;21366;-84
2022/07/24 05:12:29;;;;;;;7.35;6.65;;;;;;;19.24;86.76;96905.73;1622300;87;21010;-83
2022/07/24 05:14:55;;;;;;;8.00;7.30;;;;;;;19.24;86.73;96913.13;1615678;87;21000;-83
2022/07/24 05:17:21;;;;;;;8.03;7.22;;;;;;;19.20;86.41;96911.97;1617899;87;21344;-83
2022/07/24 05:19:46;;;;;;;9.83;7.92;;;;;;;19.13;86.03;96913.35;1619522;87;21066;-84
2022/07/24 05:22:12;;;;;;;7.90;7.10;;;;;;;19.06;86.21;96915.28;1643152;86;21015;-86
2022/07/24 05:24:38;;;;;;;8.68;6.95;;;;;;;19.02;85.92;96918.56;1636429;86;21004;-87
2022/07/24 05:27:04;;;;;;;10.55;7.33;;;;;;;18.91;84.88;96920.13;1643691;86;21004;-87
2022/07/24 05:29:30;;;;;;;7.80;6.97;;;;;;;18.91;84.88;96920.13;1605510;87;21047;-86
2022/07/24 05:31:55;;;;;;;8.33;7.47;;;;;;;18.82;85.06;96914.86;1642346;86;21401;-85
2022/07/24 05:34:22;;;;;;;8.83;7.92;;;;;;;18.78;81.78;96922.91;1631544;86;20961;-84
2022/07/24 05:36:48;;;;;;;9.05;8.15;;;;;;;18.73;83.33;96923.58;1649720;86;21537;-87
2022/07/24 05:39:14;;;;;;;8.30;7.50;;;;;;;18.71;83.92;96925.62;1649512;86;21115;-86
2022/07/24 05:41:40;;;;;;;7.92;6.37;;;;;;;18.69;84.65;96918.44;1636751;86;21028;-85
2022/07/24 05:44:06;;;;;;;7.72;7.00;;;;;;;18.66;84.51;96919.39;1638297;86;21055;-84
2022/07/24 05:46:32;;;;;;;7.33;6.50;;;;;;;18.65;84.55;96920.42;1642152;86;21337;-88
2022/07/24 05:48:57;;;;;;;11.20;6.58;;;;;;;18.65;84.18;96915.16;1636494;86;21025;-87
2022/07/24 05:51:23;;;;;;;8.18;6.60;;;;;;;18.65;84.48;96920.42;1645148;86;20972;-87
2022/07/24 05:53:49;;;;;;;7.78;6.92;;;;;;;18.60;84.67;96919.22;1638447;86;20993;-86
2022/07/24 05:56:15;;;;;;;7.97;6.58;;;;;;;18.59;84.46;96923.39;1637052;86;21283;-84
2022/07/24 05:58:41;;;;;;;7.22;6.40;;;;;;;18.59;84.21;96920.25;1639219;86;21031;-85
2022/07/24 06:01:06;;;;;;;7.72;6.00;;;;;;;18.61;84.34;96923.98;1637916;86;21321;-84
2022/07/24 06:03:32;;;;;;;6.53;5.80;;;;;;;18.62;81.47;96923.47;1642207;86;21300;-85
2022/07/24 06:05:58;;;;;;;6.65;6.05;;;;;;;18.62;81.47;96923.47;1634004;86;21051;-85
2022/07/24 06:08:24;;;;;;;6.92;6.20;;;;;;;18.61;82.61;96923.98;1656492;86;21051;-85
2022/07/24 06:10:49;;;;;;;9.20;6.25;;;;;;;18.62;82.44;96919.52;1636321;86;21122;-86
2022/07/24 06:13:15;;;;;;;7.55;6.53;;;;;;;18.64;83.33;96922.76;1640470;86;22055;-86
2022/07/24 06:15:41;;;;;;;8.50;5.92;;;;;;;18.60;81.97;96920.54;1652660;86;20959;-87
2022/07/24 06:18:06;;;;;;;9.18;5.58;;;;;;;18.64;82.60;96926.19;1642966;86;21401;-84
2022/07/24 06:20:32;;;;;;;6.85;6.15;;;;;;;18.68;81.44;96924.73;1637872;86;21080;-87
2022/07/24 06:22:58;;;;;;;7.15;5.75;;;;;;;18.75;81.75;96919.41;1638535;86;20968;-84
2022/07/24 06:25:24;;;;;;;6.92;6.20;;;;;;;18.79;82.70;96922.69;1632875;86;20959;-84
2022/07/24 06:27:50;;;;;;;6.55;5.65;;;;;;;18.81;79.24;96921.95;1630505;86;21002;-84
2022/07/24 06:30:21;;;;;;;7.97;5.40;;;;;;;18.84;80.22;96922.02;1639883;86;20972;-84
2022/07/24 06:32:47;;;;;;;6.12;5.53;;;;;;;18.89;81.34;96922.98;1620652;86;20995;-87
2022/07/24 06:35:13;;;;;;;7.53;5.67;;;;;;;18.95;80.34;96926.55;1637763;86;20995;-87
2022/07/24 06:37:39;;;;;;;9.43;5.67;;;;;;;18.99;79.50;96924.27;1627437;86;21380;-87
2022/07/24 06:40:06;;;;;;;6.17;5.10;;;;;;;18.99;76.18;96930.34;1640656;86;21119;-87
2022/07/24 06:42:32;;;;;;;6.12;5.12;;;;;;;19.00;77.35;96928.52;1659935;86;21000;-84
2022/07/24 06:44:57;;;;;;;6.75;5.47;;;;;;;19.02;78.41;96927.27;1644356;86;21398;-85
2022/07/24 06:47:25;;;;;;;5.17;4.10;;;;;;;19.03;78.61;96922.28;1637787;86;20937;-85
2022/07/24 06:49:52;;;;;;;7.62;5.42;;;;;;;19.06;77.24;96925.02;1624999;87;21034;-84
2022/07/24 06:52:19;;;;;;;7.25;4.65;;;;;;;19.10;76.34;96928.29;1613979;87;21017;-85
2022/07/24 06:54:45;;;;;;;6.05;5.20;;;;;;;19.19;77.25;96920.36;1618400;87;21412;-85
2022/07/24 06:57:11;;;;;;;7.25;5.92;;;;;;;19.30;78.48;96933.30;1619268;87;21046;-84
2022/07/24 06:59:37;;;;;;;4.95;4.47;;;;;;;19.35;77.82;96926.03;1618608;87;20971;-85
2022/07/24 07:02:03;;;;;;;4.33;3.92;;;;;;;19.38;76.88;96931.68;1614709;87;20971;-87
2022/07/24 07:04:28;;;;;;;7.87;5.20;;;;;;;19.44;76.23;96930.77;1600906;89;21069;-88
2022/07/24 07:06:54;;;;;;;6.95;4.70;;;;;;;19.49;74.28;96935.36;1599362;88;21078;-87
2022/07/24 07:09:20;;;;;;;5.78;4.28;;;;;;;19.53;74.52;96937.86;1574322;91;21073;-85
2022/07/24 07:11:46;;;;;;;5.33;4.83;;;;;;;19.60;75.29;96937.79;1600247;88;21413;-87
2022/07/24 07:14:12;;;;;;;4.92;4.33;;;;;;;19.64;75.79;96942.38;1612179;88;21011;-87
2022/07/24 07:16:37;;;;;;;7.00;5.10;;;;;;;19.64;74.96;96941.06;1611651;87;21340;-87
2022/07/24 07:19:03;;;;;;;5.40;4.40;;;;;;;19.67;73.85;96934.53;1614924;89;21010;-86
2022/07/24 07:21:29;;;;;;;5.20;4.70;;;;;;;19.73;73.13;96941.55;1612562;87;21025;-87
2022/07/24 07:23:55;;;;;;;6.00;4.30;;;;;;;19.82;73.15;96936.22;1605941;89;21060;-87
2022/07/24 07:26:20;;;;;;;5.90;4.50;;;;;;;19.92;73.33;96939.64;1586237;89;21016;-88
2022/07/24 07:28:46;;;;;;;5.80;5.25;;;;;;;19.92;72.99;96941.76;1582159;89;21005;-87
2022/07/24 07:31:12;;;;;;;7.22;5.35;;;;;;;19.87;71.99;96940.84;1583931;90;20987;-85
2022/07/24 07:33:37;;;;;;;7.85;4.55;;;;;;;19.87;70.73;96940.33;1585050;89;21467;-85
2022/07/24 07:36:04;;;;;;;5.33;4.78;;;;;;;19.95;71.12;96943.94;1583944;91;21087;-85
2022/07/24 07:38:29;;;;;;;5.22;4.72;;;;;;;20.04;73.70;96936.51;1585493;89;21081;-85
2022/07/24 07:40:55;;;;;;;6.15;4.35;;;;;;;20.16;72.10;96946.53;1590506;89;21461;-84
2022/07/24 07:43:21;;;;;;;4.65;4.25;;;;;;;20.25;72.77;96941.73;1613028;89;21083;-84
2022/07/24 07:45:47;;;;;;;5.30;4.62;;;;;;;20.38;73.31;96941.00;1610841;87;21055;-84
2022/07/24 07:48:13;;;;;;;5.80;4.60;;;;;;;20.53;71.42;96941.88;1587378;88;21397;-89
2022/07/24 07:50:39;;;;;;;6.97;4.95;;;;;;;20.65;72.96;96940.53;1609124;88;21005;-89
2022/07/24 07:53:05;;;;;;;5.58;4.47;;;;;;;20.75;71.06;96947.36;1610901;88;20983;-85
2022/07/24 07:55:31;;;;;;;5.90;4.60;;;;;;;20.83;69.48;96949.66;1599354;88;21018;-86
2022/07/24 07:57:57;;;;;;;6.65;6.05;;;;;;;20.85;72.43;96956.83;1599822;88;21066;-84
2022/07/24 08:00:22;;;;;;;7.20;5.87;;;;;;;20.84;69.48;96963.66;1588163;89;21085;-86
2022/07/24 08:02:48;;;;;;;7.17;6.45;;;;;;;20.72;68.90;96958.91;1582883;90;21024;-86
2022/07/24 08:05:14;;;;;;;6.97;6.30;;;;;;;20.67;68.38;96967.53;1594437;88;21333;-84
2022/07/24 08:07:39;;;;;;;7.20;6.50;;;;;;;20.94;68.56;96964.66;1593750;89;21019;-89
2022/07/24 08:10:06;;;;;;;7.15;6.25;;;;;;;20.94;68.56;96964.66;1582296;89;20988;-86
2022/07/24 08:12:32;;;;;;;6.72;5.53;;;;;;;20.96;69.38;96970.51;1581075;90;21002;-86
2022/07/24 08:14:58;;;;;;;6.53;5.37;;;;;;;20.93;69.24;96967.53;1583846;89;21015;-86
2022/07/24 08:17:23;;;;;;;5.87;5.30;;;;;;;20.85;69.97;96972.67;1614931;89;21007;-86
2022/07/24 08:19:49;;;;;;;6.95;5.75;;;;;;;20.86;69.81;96972.95;1619701;87;21076;-85
2022/07/24 08:22:15;;;;;;;7.08;5.97;;;;;;;21.06;68.32;96971.25;1614763;89;21007;-86
2022/07/24 08:24:41;;;;;;;8.78;6.03;;;;;;;21.22;67.59;96971.83;1614296;88;20978;-86
2022/07/24 08:27:06;;;;;;;5.85;5.35;;;;;;;21.29;65.90;96969.07;1614679;88;21021;-89
2022/07/24 08:29:32;;;;;;;6.30;5.30;;;;;;;21.36;66.65;96969.75;1613733;88;21392;-84
2022/07/24 08:31:58;;;;;;;7.97;5.83;;;;;;;21.53;65.32;96971.12;1609485;88;20998;-84
2022/07/24 08:34:24;;;;;;;5.75;5.05;;;;;;;21.72;66.34;96980.45;1624077;87;21009;-85
2022/07/24 08:36:50;;;;;;;5.70;4.80;;;;;;;21.90;64.69;96979.44;1615137;87;21382;-85
2022/07/24 08:39:16;;;;;;;5.03;4.40;;;;;;;21.85;63.41;96990.75;1594741;89;20938;-85
2022/07/24 08:41:43;;;;;;;5.75;5.15;;;;;;;21.67;63.47;96987.51;1610166;88;21046;-88
2022/07/24 08:44:09;;;;;;;5.65;4.70;;;;;;;21.60;62.44;96988.16;1621088;87;21081;-86
2022/07/24 08:46:40;;;;;;;6.15;5.33;;;;;;;21.67;65.12;96982.22;1611263;88;21074;-85
2022/07/24 08:49:14;;;;;;;7.13;4.90;;;;;;;21.89;65.50;96975.20;1616661;87;21111;-84
2022/07/24 08:51:42;;;;;;;6.47;4.85;;;;;;;22.13;64.75;96978.55;1630629;86;21029;-84
2022/07/24 08:54:09;;;;;;;6.67;4.45;;;;;;;22.43;63.65;96979.52;1635349;86;20996;-82
2022/07/24 08:56:36;;;;;;;4.40;3.40;;;;;;;22.70;64.72;96976.48;1641995;86;21078;-82
2022/07/24 08:59:03;;;;;;;4.10;3.65;;;;;;;22.64;60.28;96980.11;1619383;87;21131;-82
2022/07/24 09:01:29;;;;;;;4.35;3.90;;;;;;;22.36;60.22;96986.31;1635631;86;21417;-85
2022/07/24 09:03:55;;;;;;;5.08;3.58;;;;;;;22.33;59.11;96990.77;1638627;86;21103;-85
2022/07/24 09:06:21;;;;;;;5.80;4.00;;;;;;;22.43;59.70;96986.94;1609190;86;21346;-85
2022/07/24 09:09:00;;;;;;;3.85;3.45;;;;;;;22.55;59.16;96978.91;1639287;86;20963;-81
2022/07/24 09:11:29;;;;;;;4.42;3.77;;;;;;;22.69;61.24;96975.39;1636731;86;21074;-83
2022/07/24 09:16:37;;;;;;;5.75;4.05;;;;;;;22.00;61.31;96981.47;1633170;86;21003;-82
2022/07/24 09:19:08;;;;;;;4.65;4.33;;;;;;;21.83;62.79;96986.22;1634012;87;21035;-83
2022/07/24 09:21:38;;;;;;;4.83;4.40;;;;;;;21.94;61.36;96988.50;1645330;86;20984;-82
2022/07/24 09:24:18;;;;;;;4.30;3.90;;;;;;;22.19;62.01;96987.36;1645160;86;21078;-82
2022/07/24 09:26:52;;;;;;;4.47;4.08;;;;;;;22.37;61.27;96983.94;1605505;88;21012;-83
2022/07/24 09:29:20;;;;;;;4.83;4.10;;;;;;;22.61;60.21;96992.48;1632642;86;21067;-81
2022/07/24 09:32:04;;;;;;;6.53;4.72;;;;;;;22.79;58.59;96987.99;1598371;88;21088;-82
2022/07/24 09:34:34;;;;;;;4.40;4.00;;;;;;;22.93;58.20;96980.77;1632365;86;21043;-82
2022/07/24 09:37:05;;;;;;;5.92;3.65;;;;;;;23.03;58.53;96981.44;1622596;86;21020;-83
2022/07/24 09:39:33;;;;;;;5.17;4.42;;;;;;;22.90;59.29;96981.27;1638097;86;21016;-83
2022/07/24 09:42:00;;;;;;;4.30;3.90;;;;;;;22.77;57.91;96985.03;1628857;86;21054;-84
2022/07/24 09:44:26;;;;;;;5.03;4.25;;;;;;;22.84;58.99;96984.91;1623096;86;21063;-84
2022/07/24 09:46:57;;;;;;;5.50;3.90;;;;;;;22.96;58.63;96988.78;1627718;86;21004;-83
2022/07/24 09:49:24;;;;;;;4.28;3.87;;;;;;;23.04;57.11;96983.84;1640455;86;21036;-83
2022/07/24 09:52:16;;;;;;;4.17;3.77;;;;;;;23.08;56.78;96981.49;1627328;86;21004;-83
2022/07/24 09:54:46;;;;;;;5.60;3.90;;;;;;;22.99;55.77;96975.84;1629769;86;21027;-85
2022/07/24 09:57:29;;;;;;;4.33;3.92;;;;;;;22.87;55.79;96977.79;1634262;86;21034;-84
2022/07/24 10:00:07;;;;;;;4.22;3.83;;;;;;;22.94;58.12;96977.59;1621480;86;21374;-82
2022/07/24 10:02:33;;;;;;;3.77;3.25;;;;;;;23.01;56.67;96972.94;1630397;87;20945;-85
2022/07/24 10:05:02;;;;;;;5.40;3.90;;;;;;;23.04;57.49;96972.44;1627344;86;21015;-82
2022/07/24 10:07:28;;;;;;;4.40;3.87;;;;;;;22.68;58.80;96957.91;1638546;86;21019;-83
2022/07/24 10:09:56;;;;;;;3.85;3.55;;;;;;;22.67;59.17;96971.67;1636769;86;21405;-82
2022/07/24 10:12:39;;;;;;;4.05;3.75;;;;;;;22.83;57.33;96970.06;1637592;86;21051;-84
2022/07/24 10:15:08;;;;;;;3.72;3.42;;;;;;;22.97;57.06;96962.56;1619582;86;21079;-82
2022/07/24 10:17:43;;;;;;;5.28;3.80;;;;;;;23.14;53.27;96967.27;1627076;86;21016;-82
2022/07/24 10:20:09;;;;;;;5.83;4.15;;;;;;;23.19;53.25;96963.34;1632620;86;20988;-84
2022/07/24 10:22:45;;;;;;;4.00;3.60;;;;;;;23.35;54.54;96963.80;1591124;86;21553;-83
2022/07/24 10:25:13;;;;;;;4.15;3.40;;;;;;;23.37;55.56;96966.20;1633763;86;21066;-82
2022/07/24 10:27:41;;;;;;;3.62;3.20;;;;;;;23.59;53.97;96963.53;1636899;86;21465;-81
2022/07/24 10:30:09;;;;;;;3.65;3.33;;;;;;;23.68;52.81;96954.08;1640166;86;21050;-81
2022/07/24 10:32:36;;;;;;;3.85;3.55;;;;;;;23.81;52.30;96952.35;1644639;86;20991;-83
2022/07/24 10:35:17;;;;;;;3.75;3.40;;;;;;;23.97;52.99;96951.95;1626462;86;20984;-81
2022/07/24 10:37:55;;;;;;;4.20;3.80;;;;;;;24.17;52.54;96961.94;1632496;86;21055;-83
2022/07/24 10:40:45;;;;;;;4.67;4.25;;;;;;;24.14;51.77;96960.59;1631668;86;21008;-83
2022/07/24 10:43:16;;;;;;;3.83;3.42;;;;;;;24.04;50.83;96946.42;1634602;86;21099;-82
2022/07/24 10:45:45;;;;;;;;;;;;;;;23.83;52.11;96958.73;1629557;87;21043;-85
2022/07/24 10:48:29;;;;;;;5.15;4.20;;;;;;;23.92;51.93;96953.25;1630706;86;20369;-84
2022/07/24 10:51:02;;;;;;;4.28;3.83;;;;;;;23.95;52.21;96948.23;1628556;86;21371;-84
2022/07/24 10:53:39;;;;;;;5.20;4.30;;;;;;;24.06;53.22;96950.95;1639647;86;20960;-89
2022/07/24 10:56:41;;;;;;;4.25;3.90;;;;;;;24.27;53.59;96946.09;1605730;86;21516;-87
2022/07/24 10:59:11;;;;;;;4.87;4.47;;;;;;;24.42;51.79;96939.58;1630608;87;21009;-88
2022/07/24 11:01:47;;;;;;;4.80;4.12;;;;;;;24.48;51.05;96943.86;1624759;87;20948;-85
2022/07/24 11:04:24;;;;;;;4.40;3.95;;;;;;;24.47;51.33;96940.94;1642276;86;21051;-88
2022/07/24 11:06:53;;;;;;;4.58;4.10;;;;;;;24.52;51.08;96937.50;1646386;86;21471;-88
2022/07/24 11:09:21;;;;;;;4.40;4.00;;;;;;;24.64;50.98;96929.34;1607212;86;21407;-88
2022/07/24 11:11:58;;;;;;;5.62;4.20;;;;;;;24.71;53.07;96937.86;1643028;86;21555;-89
2022/07/24 11:14:38;;;;;;;4.90;4.40;;;;;;;24.75;51.43;96934.45;1632585;87;21104;-89
2022/07/24 11:17:43;;;;;;;4.53;4.12;;;;;;;24.75;51.17;96936.31;1628911;88;21003;-88
2022/07/24 11:20:15;;;;;;;4.70;4.20;;;;;;;24.78;51.71;96936.59;1630028;88;21064;-87
2022/07/24 11:22:52;;;;;;;5.62;4.35;;;;;;;24.84;50.31;96938.20;1602248;89;21455;-89
2022/07/24 11:25:27;;;;;;;6.10;4.33;;;;;;;24.87;49.68;96932.09;1599259;89;21020;-90
2022/07/24 11:28:10;;;;;;;5.05;4.50;;;;;;;24.94;50.72;96926.03;1602130;89;21446;-86
2022/07/24 11:30:42;;;;;;;6.12;4.30;;;;;;;25.12;50.24;96929.05;1576534;89;21075;-86